sensor_id;sensor_type;location;lat;lon;timestamp;P1;durP1;ratioP1;P2;durP2;ratioP2
8066;SDS011;4076;48.076;9.118;2023-01-25T00:00:36;13.20;;;7.13;;
8066;SDS011;4076;48.076;9.118;2023-01-25T00:03:02;9.87;;;6.97;;
8066;SDS011;4076;48.076;9.118;2023-01-25T00:05:28;11.63;;;7.23;;
8066;SDS011;4076;48.076;9.118;2023-01-25T00:07:53;10.13;;;7.10;;
8066;SDS011;4076;48.076;9.118;2023-01-25T00:10:19;15.50;;;9.23;;
8066;SDS011;4076;48.076;9.118;2023-01-25T00:12:45;12.57;;;7.70;;
8066;SDS011;4076;48.076;9.118;2023-01-25T00:15:10;12.00;;;6.97;;
8066;SDS011;4076;48.076;9.118;2023-01-25T00:17:36;8.43;;;6.87;;
8066;SDS011;4076;48.076;9.118;2023-01-25T00:20:02;10.67;;;6.87;;
8066;SDS011;4076;48.076;9.118;2023-01-25T00:22:28;14.90;;;10.67;;
8066;SDS011;4076;48.076;9.118;2023-01-25T00:24:54;12.97;;;8.03;;
8066;SDS011;4076;48.076;9.118;2023-01-25T00:27:19;15.23;;;8.90;;
8066;SDS011;4076;48.076;9.118;2023-01-25T00:29:45;10.80;;;6.23;;
8066;SDS011;4076;48.076;9.118;2023-01-25T00:34:44;10.87;;;7.10;;
8066;SDS011;4076;48.076;9.118;2023-01-25T00:37:18;10.83;;;7.70;;
8066;SDS011;4076;48.076;9.118;2023-01-25T00:39:49;16.93;;;10.70;;
8066;SDS011;4076;48.076;9.118;2023-01-25T00:42:16;10.63;;;8.53;;
8066;SDS011;4076;48.076;9.118;2023-01-25T00:44:43;10.57;;;7.73;;
8066;SDS011;4076;48.076;9.118;2023-01-25T00:47:10;12.40;;;8.50;;
8066;SDS011;4076;48.076;9.118;2023-01-25T00:49:36;11.97;;;7.60;;
8066;SDS011;4076;48.076;9.118;2023-01-25T00:52:03;12.40;;;7.90;;
8066;SDS011;4076;48.076;9.118;2023-01-25T00:54:29;14.10;;;10.90;;
8066;SDS011;4076;48.076;9.118;2023-01-25T00:56:55;11.00;;;7.23;;
8066;SDS011;4076;48.076;9.118;2023-01-25T00:59:21;14.13;;;9.63;;
8066;SDS011;4076;48.076;9.118;2023-01-25T01:01:47;15.30;;;8.27;;
8066;SDS011;4076;48.076;9.118;2023-01-25T01:04:13;15.43;;;8.90;;
8066;SDS011;4076;48.076;9.118;2023-01-25T01:06:40;14.40;;;9.33;;
8066;SDS011;4076;48.076;9.118;2023-01-25T01:09:06;12.57;;;8.37;;
8066;SDS011;4076;48.076;9.118;2023-01-25T01:11:35;11.50;;;8.50;;
8066;SDS011;4076;48.076;9.118;2023-01-25T01:14:00;13.13;;;8.17;;
8066;SDS011;4076;48.076;9.118;2023-01-25T01:16:26;12.50;;;7.40;;
8066;SDS011;4076;48.076;9.118;2023-01-25T01:18:52;15.50;;;8.97;;
8066;SDS011;4076;48.076;9.118;2023-01-25T01:21:18;12.33;;;8.27;;
8066;SDS011;4076;48.076;9.118;2023-01-25T01:23:44;14.97;;;9.47;;
8066;SDS011;4076;48.076;9.118;2023-01-25T01:26:11;14.77;;;9.10;;
8066;SDS011;4076;48.076;9.118;2023-01-25T01:28:39;13.47;;;8.67;;
8066;SDS011;4076;48.076;9.118;2023-01-25T01:31:06;15.67;;;10.00;;
8066;SDS011;4076;48.076;9.118;2023-01-25T01:33:34;10.77;;;8.50;;
8066;SDS011;4076;48.076;9.118;2023-01-25T01:36:10;19.67;;;11.10;;
8066;SDS011;4076;48.076;9.118;2023-01-25T01:38:37;14.13;;;9.57;;
8066;SDS011;4076;48.076;9.118;2023-01-25T01:41:03;11.93;;;9.10;;
8066;SDS011;4076;48.076;9.118;2023-01-25T01:43:29;16.97;;;11.10;;
8066;SDS011;4076;48.076;9.118;2023-01-25T01:45:59;13.50;;;8.90;;
8066;SDS011;4076;48.076;9.118;2023-01-25T01:54:02;15.50;;;10.40;;
8066;SDS011;4076;48.076;9.118;2023-01-25T01:56:48;13.50;;;9.73;;
8066;SDS011;4076;48.076;9.118;2023-01-25T01:59:21;11.30;;;8.40;;
8066;SDS011;4076;48.076;9.118;2023-01-25T02:01:50;14.93;;;10.50;;
8066;SDS011;4076;48.076;9.118;2023-01-25T02:04:17;10.63;;;7.40;;
8066;SDS011;4076;48.076;9.118;2023-01-25T02:06:51;13.97;;;7.50;;
8066;SDS011;4076;48.076;9.118;2023-01-25T02:09:18;12.73;;;7.30;;
8066;SDS011;4076;48.076;9.118;2023-01-25T02:11:46;13.30;;;8.07;;
8066;SDS011;4076;48.076;9.118;2023-01-25T02:14:13;15.73;;;9.90;;
8066;SDS011;4076;48.076;9.118;2023-01-25T02:16:41;20.43;;;7.93;;
8066;SDS011;4076;48.076;9.118;2023-01-25T02:19:07;15.33;;;9.00;;
8066;SDS011;4076;48.076;9.118;2023-01-25T02:21:41;10.87;;;8.13;;
8066;SDS011;4076;48.076;9.118;2023-01-25T02:24:11;12.60;;;7.93;;
8066;SDS011;4076;48.076;9.118;2023-01-25T02:26:45;13.80;;;9.60;;
8066;SDS011;4076;48.076;9.118;2023-01-25T02:29:10;12.57;;;7.80;;
8066;SDS011;4076;48.076;9.118;2023-01-25T02:31:37;12.70;;;7.00;;
8066;SDS011;4076;48.076;9.118;2023-01-25T02:34:03;13.13;;;9.17;;
8066;SDS011;4076;48.076;9.118;2023-01-25T02:36:30;13.70;;;7.80;;
8066;SDS011;4076;48.076;9.118;2023-01-25T02:39:02;13.97;;;8.53;;
8066;SDS011;4076;48.076;9.118;2023-01-25T02:41:38;12.37;;;8.87;;
8066;SDS011;4076;48.076;9.118;2023-01-25T02:46:42;15.30;;;10.70;;
8066;SDS011;4076;48.076;9.118;2023-01-25T02:49:09;13.37;;;9.63;;
8066;SDS011;4076;48.076;9.118;2023-01-25T02:51:36;15.83;;;9.70;;
8066;SDS011;4076;48.076;9.118;2023-01-25T02:54:04;16.70;;;10.07;;
8066;SDS011;4076;48.076;9.118;2023-01-25T02:56:32;11.90;;;8.77;;
8066;SDS011;4076;48.076;9.118;2023-01-25T02:58:57;12.67;;;9.00;;
8066;SDS011;4076;48.076;9.118;2023-01-25T03:01:23;16.07;;;10.40;;
8066;SDS011;4076;48.076;9.118;2023-01-25T03:03:49;14.30;;;9.53;;
8066;SDS011;4076;48.076;9.118;2023-01-25T03:06:15;13.13;;;8.47;;
8066;SDS011;4076;48.076;9.118;2023-01-25T03:08:40;16.40;;;8.70;;
8066;SDS011;4076;48.076;9.118;2023-01-25T03:11:06;16.70;;;10.53;;
8066;SDS011;4076;48.076;9.118;2023-01-25T03:13:33;13.37;;;8.57;;
8066;SDS011;4076;48.076;9.118;2023-01-25T03:16:03;14.30;;;9.27;;
8066;SDS011;4076;48.076;9.118;2023-01-25T03:18:31;14.83;;;10.17;;
8066;SDS011;4076;48.076;9.118;2023-01-25T03:21:03;16.90;;;9.37;;
8066;SDS011;4076;48.076;9.118;2023-01-25T03:23:32;16.97;;;10.60;;
8066;SDS011;4076;48.076;9.118;2023-01-25T03:28:41;13.83;;;7.93;;
8066;SDS011;4076;48.076;9.118;2023-01-25T03:31:08;12.10;;;9.73;;
8066;SDS011;4076;48.076;9.118;2023-01-25T03:33:35;19.70;;;10.73;;
8066;SDS011;4076;48.076;9.118;2023-01-25T03:36:01;13.67;;;8.23;;
8066;SDS011;4076;48.076;9.118;2023-01-25T03:38:28;10.97;;;9.13;;
8066;SDS011;4076;48.076;9.118;2023-01-25T03:40:54;13.30;;;8.40;;
8066;SDS011;4076;48.076;9.118;2023-01-25T03:43:20;17.00;;;9.63;;
8066;SDS011;4076;48.076;9.118;2023-01-25T03:45:51;12.43;;;7.30;;
8066;SDS011;4076;48.076;9.118;2023-01-25T03:48:17;14.10;;;8.60;;
8066;SDS011;4076;48.076;9.118;2023-01-25T03:50:47;14.13;;;8.80;;
8066;SDS011;4076;48.076;9.118;2023-01-25T03:53:17;16.33;;;8.83;;
8066;SDS011;4076;48.076;9.118;2023-01-25T03:55:57;16.80;;;10.63;;
8066;SDS011;4076;48.076;9.118;2023-01-25T03:58:25;12.23;;;9.33;;
8066;SDS011;4076;48.076;9.118;2023-01-25T04:00:53;14.50;;;9.43;;
8066;SDS011;4076;48.076;9.118;2023-01-25T04:03:19;19.97;;;10.93;;
8066;SDS011;4076;48.076;9.118;2023-01-25T04:05:45;15.10;;;9.40;;
8066;SDS011;4076;48.076;9.118;2023-01-25T04:08:11;16.03;;;8.80;;
8066;SDS011;4076;48.076;9.118;2023-01-25T04:10:37;14.50;;;8.50;;
8066;SDS011;4076;48.076;9.118;2023-01-25T04:13:03;14.23;;;9.47;;
8066;SDS011;4076;48.076;9.118;2023-01-25T04:15:28;14.83;;;10.47;;
8066;SDS011;4076;48.076;9.118;2023-01-25T04:17:54;16.23;;;9.70;;
8066;SDS011;4076;48.076;9.118;2023-01-25T04:20:20;13.23;;;8.67;;
8066;SDS011;4076;48.076;9.118;2023-01-25T04:22:46;19.67;;;9.50;;
8066;SDS011;4076;48.076;9.118;2023-01-25T04:25:11;19.23;;;9.83;;
8066;SDS011;4076;48.076;9.118;2023-01-25T04:27:37;14.20;;;9.60;;
8066;SDS011;4076;48.076;9.118;2023-01-25T04:30:02;15.37;;;9.00;;
8066;SDS011;4076;48.076;9.118;2023-01-25T04:32:28;21.93;;;12.90;;
8066;SDS011;4076;48.076;9.118;2023-01-25T04:34:54;14.13;;;9.60;;
8066;SDS011;4076;48.076;9.118;2023-01-25T04:37:20;13.83;;;9.30;;
8066;SDS011;4076;48.076;9.118;2023-01-25T04:39:45;15.20;;;9.63;;
8066;SDS011;4076;48.076;9.118;2023-01-25T04:42:11;14.70;;;9.33;;
8066;SDS011;4076;48.076;9.118;2023-01-25T04:44:36;15.47;;;8.20;;
8066;SDS011;4076;48.076;9.118;2023-01-25T04:47:02;14.97;;;8.80;;
8066;SDS011;4076;48.076;9.118;2023-01-25T04:49:27;14.23;;;7.87;;
8066;SDS011;4076;48.076;9.118;2023-01-25T04:51:53;13.73;;;7.33;;
8066;SDS011;4076;48.076;9.118;2023-01-25T04:54:19;12.80;;;8.20;;
8066;SDS011;4076;48.076;9.118;2023-01-25T04:56:44;12.43;;;9.13;;
8066;SDS011;4076;48.076;9.118;2023-01-25T04:59:10;9.57;;;6.40;;
8066;SDS011;4076;48.076;9.118;2023-01-25T05:01:35;14.53;;;8.10;;
8066;SDS011;4076;48.076;9.118;2023-01-25T05:04:01;13.23;;;8.23;;
8066;SDS011;4076;48.076;9.118;2023-01-25T05:06:26;16.13;;;9.20;;
8066;SDS011;4076;48.076;9.118;2023-01-25T05:08:52;13.07;;;7.00;;
8066;SDS011;4076;48.076;9.118;2023-01-25T05:11:17;12.97;;;6.73;;
8066;SDS011;4076;48.076;9.118;2023-01-25T05:13:43;11.77;;;6.20;;
8066;SDS011;4076;48.076;9.118;2023-01-25T05:16:09;11.60;;;6.30;;
8066;SDS011;4076;48.076;9.118;2023-01-25T05:18:34;12.47;;;7.27;;
8066;SDS011;4076;48.076;9.118;2023-01-25T05:21:00;9.33;;;7.20;;
8066;SDS011;4076;48.076;9.118;2023-01-25T05:23:25;13.13;;;7.10;;
8066;SDS011;4076;48.076;9.118;2023-01-25T05:25:51;9.60;;;6.50;;
8066;SDS011;4076;48.076;9.118;2023-01-25T05:28:35;9.00;;;5.80;;
8066;SDS011;4076;48.076;9.118;2023-01-25T05:31:04;14.40;;;9.13;;
8066;SDS011;4076;48.076;9.118;2023-01-25T05:33:29;11.30;;;8.17;;
8066;SDS011;4076;48.076;9.118;2023-01-25T05:35:55;9.97;;;6.80;;
8066;SDS011;4076;48.076;9.118;2023-01-25T05:38:22;11.17;;;6.93;;
8066;SDS011;4076;48.076;9.118;2023-01-25T05:40:48;11.13;;;6.80;;
8066;SDS011;4076;48.076;9.118;2023-01-25T05:43:14;8.53;;;7.50;;
8066;SDS011;4076;48.076;9.118;2023-01-25T05:45:39;12.97;;;6.07;;
8066;SDS011;4076;48.076;9.118;2023-01-25T05:48:05;12.30;;;6.17;;
8066;SDS011;4076;48.076;9.118;2023-01-25T05:50:31;10.43;;;6.53;;
8066;SDS011;4076;48.076;9.118;2023-01-25T05:52:56;10.90;;;7.10;;
8066;SDS011;4076;48.076;9.118;2023-01-25T05:55:22;14.37;;;9.43;;
8066;SDS011;4076;48.076;9.118;2023-01-25T05:57:47;9.80;;;6.00;;
8066;SDS011;4076;48.076;9.118;2023-01-25T06:00:14;14.43;;;7.73;;
8066;SDS011;4076;48.076;9.118;2023-01-25T06:02:40;11.90;;;6.17;;
8066;SDS011;4076;48.076;9.118;2023-01-25T06:05:06;11.63;;;7.30;;
8066;SDS011;4076;48.076;9.118;2023-01-25T06:07:32;11.47;;;7.33;;
8066;SDS011;4076;48.076;9.118;2023-01-25T06:10:02;13.23;;;7.60;;
8066;SDS011;4076;48.076;9.118;2023-01-25T06:12:29;10.20;;;6.73;;
8066;SDS011;4076;48.076;9.118;2023-01-25T06:14:55;12.97;;;8.33;;
8066;SDS011;4076;48.076;9.118;2023-01-25T06:17:21;9.03;;;5.63;;
8066;SDS011;4076;48.076;9.118;2023-01-25T06:19:46;14.37;;;7.23;;
8066;SDS011;4076;48.076;9.118;2023-01-25T06:22:12;10.20;;;6.37;;
8066;SDS011;4076;48.076;9.118;2023-01-25T06:24:37;10.37;;;6.57;;
8066;SDS011;4076;48.076;9.118;2023-01-25T06:27:03;12.47;;;6.70;;
8066;SDS011;4076;48.076;9.118;2023-01-25T06:29:28;10.87;;;6.50;;
8066;SDS011;4076;48.076;9.118;2023-01-25T06:31:54;10.23;;;5.77;;
8066;SDS011;4076;48.076;9.118;2023-01-25T06:34:20;13.80;;;6.00;;
8066;SDS011;4076;48.076;9.118;2023-01-25T06:36:48;13.47;;;7.80;;
8066;SDS011;4076;48.076;9.118;2023-01-25T06:39:13;10.97;;;6.83;;
8066;SDS011;4076;48.076;9.118;2023-01-25T06:41:39;11.10;;;5.77;;
8066;SDS011;4076;48.076;9.118;2023-01-25T06:44:05;11.67;;;6.50;;
8066;SDS011;4076;48.076;9.118;2023-01-25T06:46:30;12.83;;;7.87;;
8066;SDS011;4076;48.076;9.118;2023-01-25T06:48:57;12.00;;;7.73;;
8066;SDS011;4076;48.076;9.118;2023-01-25T06:51:23;10.37;;;6.63;;
8066;SDS011;4076;48.076;9.118;2023-01-25T06:53:48;8.03;;;7.33;;
8066;SDS011;4076;48.076;9.118;2023-01-25T06:56:15;10.13;;;5.43;;
8066;SDS011;4076;48.076;9.118;2023-01-25T06:58:44;12.40;;;6.50;;
8066;SDS011;4076;48.076;9.118;2023-01-25T07:01:14;11.93;;;8.20;;
8066;SDS011;4076;48.076;9.118;2023-01-25T07:03:46;16.43;;;8.27;;
8066;SDS011;4076;48.076;9.118;2023-01-25T07:06:13;14.37;;;8.17;;
8066;SDS011;4076;48.076;9.118;2023-01-25T07:08:38;10.27;;;7.30;;
8066;SDS011;4076;48.076;9.118;2023-01-25T07:11:05;16.93;;;9.60;;
8066;SDS011;4076;48.076;9.118;2023-01-25T07:13:33;12.57;;;8.87;;
8066;SDS011;4076;48.076;9.118;2023-01-25T07:16:00;14.13;;;7.20;;
8066;SDS011;4076;48.076;9.118;2023-01-25T07:18:28;14.17;;;9.47;;
8066;SDS011;4076;48.076;9.118;2023-01-25T07:20:54;12.57;;;7.27;;
8066;SDS011;4076;48.076;9.118;2023-01-25T07:23:25;12.93;;;7.40;;
8066;SDS011;4076;48.076;9.118;2023-01-25T07:25:51;14.60;;;7.90;;
8066;SDS011;4076;48.076;9.118;2023-01-25T07:28:17;15.17;;;8.23;;
8066;SDS011;4076;48.076;9.118;2023-01-25T07:30:43;10.67;;;6.90;;
8066;SDS011;4076;48.076;9.118;2023-01-25T07:33:09;12.00;;;9.80;;
8066;SDS011;4076;48.076;9.118;2023-01-25T07:35:35;17.90;;;9.60;;
8066;SDS011;4076;48.076;9.118;2023-01-25T07:38:01;15.90;;;10.37;;
8066;SDS011;4076;48.076;9.118;2023-01-25T07:40:27;15.97;;;9.17;;
8066;SDS011;4076;48.076;9.118;2023-01-25T07:42:53;13.13;;;8.40;;
8066;SDS011;4076;48.076;9.118;2023-01-25T07:45:19;17.17;;;11.20;;
8066;SDS011;4076;48.076;9.118;2023-01-25T07:47:45;17.20;;;10.83;;
8066;SDS011;4076;48.076;9.118;2023-01-25T07:50:11;15.13;;;8.43;;
8066;SDS011;4076;48.076;9.118;2023-01-25T07:52:37;16.67;;;9.63;;
8066;SDS011;4076;48.076;9.118;2023-01-25T07:55:03;15.37;;;8.90;;
8066;SDS011;4076;48.076;9.118;2023-01-25T07:57:29;18.07;;;11.33;;
8066;SDS011;4076;48.076;9.118;2023-01-25T07:59:55;17.03;;;9.30;;
8066;SDS011;4076;48.076;9.118;2023-01-25T08:02:20;13.97;;;8.60;;
8066;SDS011;4076;48.076;9.118;2023-01-25T08:04:46;13.67;;;8.40;;
8066;SDS011;4076;48.076;9.118;2023-01-25T08:07:12;15.33;;;8.60;;
8066;SDS011;4076;48.076;9.118;2023-01-25T08:09:39;14.57;;;7.90;;
8066;SDS011;4076;48.076;9.118;2023-01-25T08:12:05;15.10;;;10.10;;
8066;SDS011;4076;48.076;9.118;2023-01-25T08:14:32;17.63;;;8.50;;
8066;SDS011;4076;48.076;9.118;2023-01-25T08:16:57;14.50;;;9.90;;
8066;SDS011;4076;48.076;9.118;2023-01-25T08:19:23;13.27;;;8.70;;
8066;SDS011;4076;48.076;9.118;2023-01-25T08:21:50;15.67;;;8.87;;
8066;SDS011;4076;48.076;9.118;2023-01-25T08:24:15;21.83;;;11.07;;
8066;SDS011;4076;48.076;9.118;2023-01-25T08:26:41;13.80;;;7.67;;
8066;SDS011;4076;48.076;9.118;2023-01-25T08:29:08;13.53;;;9.00;;
8066;SDS011;4076;48.076;9.118;2023-01-25T08:31:35;16.37;;;10.43;;
8066;SDS011;4076;48.076;9.118;2023-01-25T08:34:03;12.70;;;7.73;;
8066;SDS011;4076;48.076;9.118;2023-01-25T08:36:30;18.07;;;8.70;;
8066;SDS011;4076;48.076;9.118;2023-01-25T08:38:58;12.27;;;8.20;;
8066;SDS011;4076;48.076;9.118;2023-01-25T08:41:25;13.23;;;7.60;;
8066;SDS011;4076;48.076;9.118;2023-01-25T08:43:52;20.90;;;9.67;;
8066;SDS011;4076;48.076;9.118;2023-01-25T08:46:19;27.07;;;14.13;;
8066;SDS011;4076;48.076;9.118;2023-01-25T08:48:46;19.87;;;11.63;;
8066;SDS011;4076;48.076;9.118;2023-01-25T08:51:12;15.70;;;8.30;;
8066;SDS011;4076;48.076;9.118;2023-01-25T08:53:40;19.50;;;8.90;;
8066;SDS011;4076;48.076;9.118;2023-01-25T08:56:10;13.67;;;7.50;;
8066;SDS011;4076;48.076;9.118;2023-01-25T08:58:37;16.57;;;9.50;;
8066;SDS011;4076;48.076;9.118;2023-01-25T09:01:05;17.73;;;8.60;;
8066;SDS011;4076;48.076;9.118;2023-01-25T09:03:39;15.87;;;10.33;;
8066;SDS011;4076;48.076;9.118;2023-01-25T09:06:07;12.10;;;8.50;;
8066;SDS011;4076;48.076;9.118;2023-01-25T09:08:34;13.60;;;9.90;;
8066;SDS011;4076;48.076;9.118;2023-01-25T09:11:02;14.90;;;8.43;;
8066;SDS011;4076;48.076;9.118;2023-01-25T09:13:29;11.67;;;8.40;;
8066;SDS011;4076;48.076;9.118;2023-01-25T09:15:59;12.67;;;7.60;;
8066;SDS011;4076;48.076;9.118;2023-01-25T09:18:29;18.00;;;9.00;;
8066;SDS011;4076;48.076;9.118;2023-01-25T09:20:55;18.70;;;9.93;;
8066;SDS011;4076;48.076;9.118;2023-01-25T09:23:21;17.53;;;8.70;;
8066;SDS011;4076;48.076;9.118;2023-01-25T09:25:48;15.80;;;9.30;;
8066;SDS011;4076;48.076;9.118;2023-01-25T09:28:20;14.03;;;8.90;;
8066;SDS011;4076;48.076;9.118;2023-01-25T09:30:45;14.17;;;9.00;;
8066;SDS011;4076;48.076;9.118;2023-01-25T09:33:29;14.77;;;10.00;;
8066;SDS011;4076;48.076;9.118;2023-01-25T09:35:59;15.87;;;9.73;;
8066;SDS011;4076;48.076;9.118;2023-01-25T09:38:26;15.77;;;10.70;;
8066;SDS011;4076;48.076;9.118;2023-01-25T09:40:56;22.73;;;12.20;;
8066;SDS011;4076;48.076;9.118;2023-01-25T09:46:21;15.23;;;9.07;;
8066;SDS011;4076;48.076;9.118;2023-01-25T09:54:25;16.83;;;9.30;;
8066;SDS011;4076;48.076;9.118;2023-01-25T09:56:54;10.63;;;7.73;;
8066;SDS011;4076;48.076;9.118;2023-01-25T09:59:22;14.53;;;7.90;;
8066;SDS011;4076;48.076;9.118;2023-01-25T10:01:59;14.07;;;8.30;;
8066;SDS011;4076;48.076;9.118;2023-01-25T10:04:34;14.80;;;7.63;;
8066;SDS011;4076;48.076;9.118;2023-01-25T10:07:15;14.93;;;10.43;;
8066;SDS011;4076;48.076;9.118;2023-01-25T10:09:54;13.40;;;8.17;;
8066;SDS011;4076;48.076;9.118;2023-01-25T10:12:27;14.97;;;9.30;;
8066;SDS011;4076;48.076;9.118;2023-01-25T10:14:57;15.53;;;9.20;;
8066;SDS011;4076;48.076;9.118;2023-01-25T10:17:26;14.80;;;11.27;;
8066;SDS011;4076;48.076;9.118;2023-01-25T10:23:03;15.43;;;9.20;;
8066;SDS011;4076;48.076;9.118;2023-01-25T10:25:37;14.83;;;8.00;;
8066;SDS011;4076;48.076;9.118;2023-01-25T10:28:25;16.30;;;9.23;;
8066;SDS011;4076;48.076;9.118;2023-01-25T10:30:55;13.97;;;7.77;;
8066;SDS011;4076;48.076;9.118;2023-01-25T10:33:26;12.10;;;6.87;;
8066;SDS011;4076;48.076;9.118;2023-01-25T10:35:54;15.80;;;8.00;;
8066;SDS011;4076;48.076;9.118;2023-01-25T10:38:42;13.03;;;8.00;;
8066;SDS011;4076;48.076;9.118;2023-01-25T10:41:20;11.97;;;7.10;;
8066;SDS011;4076;48.076;9.118;2023-01-25T10:44:10;14.60;;;9.00;;
8066;SDS011;4076;48.076;9.118;2023-01-25T10:46:47;14.97;;;8.80;;
8066;SDS011;4076;48.076;9.118;2023-01-25T10:49:24;14.30;;;7.77;;
8066;SDS011;4076;48.076;9.118;2023-01-25T10:52:10;17.23;;;7.10;;
8066;SDS011;4076;48.076;9.118;2023-01-25T10:54:41;14.40;;;7.70;;
8066;SDS011;4076;48.076;9.118;2023-01-25T10:57:07;15.97;;;10.27;;
8066;SDS011;4076;48.076;9.118;2023-01-25T10:59:36;14.23;;;7.30;;
8066;SDS011;4076;48.076;9.118;2023-01-25T11:07:42;16.83;;;9.50;;
8066;SDS011;4076;48.076;9.118;2023-01-25T11:23:35;15.30;;;7.63;;
8066;SDS011;4076;48.076;9.118;2023-01-25T11:26:11;11.87;;;7.10;;
8066;SDS011;4076;48.076;9.118;2023-01-25T11:28:39;15.87;;;11.43;;
8066;SDS011;4076;48.076;9.118;2023-01-25T11:31:04;24.83;;;10.23;;
8066;SDS011;4076;48.076;9.118;2023-01-25T11:33:39;13.77;;;9.03;;
8066;SDS011;4076;48.076;9.118;2023-01-25T11:38:43;17.03;;;9.07;;
8066;SDS011;4076;48.076;9.118;2023-01-25T11:44:10;18.20;;;9.20;;
8066;SDS011;4076;48.076;9.118;2023-01-25T11:50:01;13.90;;;8.97;;
8066;SDS011;4076;48.076;9.118;2023-01-25T11:52:36;18.70;;;9.80;;
8066;SDS011;4076;48.076;9.118;2023-01-25T11:55:31;13.83;;;10.70;;
8066;SDS011;4076;48.076;9.118;2023-01-25T11:58:10;21.10;;;13.20;;
8066;SDS011;4076;48.076;9.118;2023-01-25T12:06:14;18.37;;;10.30;;
8066;SDS011;4076;48.076;9.118;2023-01-25T12:26:05;17.37;;;12.70;;
8066;SDS011;4076;48.076;9.118;2023-01-25T12:33:47;16.00;;;9.30;;
8066;SDS011;4076;48.076;9.118;2023-01-25T12:44:32;18.60;;;10.27;;
8066;SDS011;4076;48.076;9.118;2023-01-25T12:49:44;13.80;;;8.10;;
8066;SDS011;4076;48.076;9.118;2023-01-25T12:52:29;12.70;;;8.70;;
8066;SDS011;4076;48.076;9.118;2023-01-25T12:55:04;18.00;;;10.10;;
8066;SDS011;4076;48.076;9.118;2023-01-25T12:57:36;17.57;;;7.47;;
8066;SDS011;4076;48.076;9.118;2023-01-25T13:00:31;14.00;;;7.83;;
8066;SDS011;4076;48.076;9.118;2023-01-25T13:05:56;13.67;;;7.33;;
8066;SDS011;4076;48.076;9.118;2023-01-25T13:08:47;15.10;;;9.53;;
8066;SDS011;4076;48.076;9.118;2023-01-25T13:11:36;16.30;;;10.10;;
8066;SDS011;4076;48.076;9.118;2023-01-25T13:16:46;13.87;;;8.90;;
8066;SDS011;4076;48.076;9.118;2023-01-25T13:21:57;12.17;;;7.77;;
8066;SDS011;4076;48.076;9.118;2023-01-25T13:24:25;9.50;;;6.43;;
8066;SDS011;4076;48.076;9.118;2023-01-25T13:26:59;12.60;;;8.73;;
8066;SDS011;4076;48.076;9.118;2023-01-25T13:29:53;11.30;;;7.20;;
8066;SDS011;4076;48.076;9.118;2023-01-25T13:37:21;15.97;;;9.07;;
8066;SDS011;4076;48.076;9.118;2023-01-25T13:39:54;15.67;;;10.17;;
8066;SDS011;4076;48.076;9.118;2023-01-25T13:42:25;17.77;;;9.57;;
8066;SDS011;4076;48.076;9.118;2023-01-25T13:47:42;15.43;;;11.17;;
8066;SDS011;4076;48.076;9.118;2023-01-25T13:50:24;22.27;;;9.73;;
8066;SDS011;4076;48.076;9.118;2023-01-25T13:55:27;13.70;;;8.00;;
8066;SDS011;4076;48.076;9.118;2023-01-25T14:03:23;10.70;;;6.47;;
8066;SDS011;4076;48.076;9.118;2023-01-25T14:05:52;11.57;;;7.13;;
8066;SDS011;4076;48.076;9.118;2023-01-25T14:08:21;11.60;;;5.80;;
8066;SDS011;4076;48.076;9.118;2023-01-25T14:10:48;10.30;;;6.27;;
8066;SDS011;4076;48.076;9.118;2023-01-25T14:13:14;10.87;;;6.10;;
8066;SDS011;4076;48.076;9.118;2023-01-25T14:15:50;12.83;;;7.80;;
8066;SDS011;4076;48.076;9.118;2023-01-25T14:18:20;12.90;;;9.10;;
8066;SDS011;4076;48.076;9.118;2023-01-25T14:20:50;9.83;;;7.70;;
8066;SDS011;4076;48.076;9.118;2023-01-25T14:25:47;13.97;;;8.27;;
8066;SDS011;4076;48.076;9.118;2023-01-25T14:28:13;16.60;;;10.43;;
8066;SDS011;4076;48.076;9.118;2023-01-25T14:30:39;11.00;;;9.27;;
8066;SDS011;4076;48.076;9.118;2023-01-25T14:33:16;15.73;;;8.90;;
8066;SDS011;4076;48.076;9.118;2023-01-25T14:35:48;16.30;;;10.83;;
8066;SDS011;4076;48.076;9.118;2023-01-25T14:38:20;12.07;;;8.77;;
8066;SDS011;4076;48.076;9.118;2023-01-25T14:40:49;14.00;;;10.53;;
8066;SDS011;4076;48.076;9.118;2023-01-25T14:43:17;18.13;;;9.73;;
8066;SDS011;4076;48.076;9.118;2023-01-25T14:45:43;11.97;;;8.30;;
8066;SDS011;4076;48.076;9.118;2023-01-25T14:51:03;19.80;;;10.90;;
8066;SDS011;4076;48.076;9.118;2023-01-25T14:53:33;16.33;;;8.80;;
8066;SDS011;4076;48.076;9.118;2023-01-25T14:56:03;22.27;;;8.97;;
8066;SDS011;4076;48.076;9.118;2023-01-25T14:58:29;16.87;;;7.70;;
8066;SDS011;4076;48.076;9.118;2023-01-25T15:00:59;11.00;;;8.37;;
8066;SDS011;4076;48.076;9.118;2023-01-25T15:03:26;15.60;;;9.73;;
8066;SDS011;4076;48.076;9.118;2023-01-25T15:05:54;11.23;;;5.93;;
8066;SDS011;4076;48.076;9.118;2023-01-25T15:08:28;15.00;;;8.60;;
8066;SDS011;4076;48.076;9.118;2023-01-25T15:10:58;15.77;;;8.53;;
8066;SDS011;4076;48.076;9.118;2023-01-25T15:13:44;13.30;;;7.13;;
8066;SDS011;4076;48.076;9.118;2023-01-25T15:16:10;13.70;;;9.53;;
8066;SDS011;4076;48.076;9.118;2023-01-25T15:18:40;17.00;;;9.10;;
8066;SDS011;4076;48.076;9.118;2023-01-25T15:21:15;20.93;;;11.27;;
8066;SDS011;4076;48.076;9.118;2023-01-25T15:23:48;16.33;;;9.57;;
8066;SDS011;4076;48.076;9.118;2023-01-25T15:28:43;11.30;;;7.10;;
8066;SDS011;4076;48.076;9.118;2023-01-25T15:31:16;14.60;;;8.03;;
8066;SDS011;4076;48.076;9.118;2023-01-25T15:33:43;14.17;;;8.77;;
8066;SDS011;4076;48.076;9.118;2023-01-25T15:36:12;10.67;;;7.63;;
8066;SDS011;4076;48.076;9.118;2023-01-25T15:38:39;20.60;;;11.90;;
8066;SDS011;4076;48.076;9.118;2023-01-25T15:41:05;14.83;;;9.40;;
8066;SDS011;4076;48.076;9.118;2023-01-25T15:43:31;16.13;;;13.13;;
8066;SDS011;4076;48.076;9.118;2023-01-25T15:45:57;16.67;;;9.30;;
8066;SDS011;4076;48.076;9.118;2023-01-25T15:48:27;21.70;;;12.00;;
8066;SDS011;4076;48.076;9.118;2023-01-25T15:50:56;12.83;;;8.37;;
8066;SDS011;4076;48.076;9.118;2023-01-25T15:53:22;21.03;;;11.50;;
8066;SDS011;4076;48.076;9.118;2023-01-25T15:55:50;10.53;;;8.23;;
8066;SDS011;4076;48.076;9.118;2023-01-25T15:58:34;18.30;;;11.00;;
8066;SDS011;4076;48.076;9.118;2023-01-25T16:01:02;16.07;;;9.00;;
8066;SDS011;4076;48.076;9.118;2023-01-25T16:03:28;15.17;;;9.73;;
8066;SDS011;4076;48.076;9.118;2023-01-25T16:06:00;17.13;;;10.37;;
8066;SDS011;4076;48.076;9.118;2023-01-25T16:08:31;21.13;;;10.77;;
8066;SDS011;4076;48.076;9.118;2023-01-25T16:10:57;20.47;;;9.10;;
8066;SDS011;4076;48.076;9.118;2023-01-25T16:13:23;15.13;;;8.37;;
8066;SDS011;4076;48.076;9.118;2023-01-25T16:15:50;21.47;;;12.90;;
8066;SDS011;4076;48.076;9.118;2023-01-25T16:18:17;16.00;;;9.90;;
8066;SDS011;4076;48.076;9.118;2023-01-25T16:20:43;19.03;;;8.13;;
8066;SDS011;4076;48.076;9.118;2023-01-25T16:23:09;16.33;;;10.37;;
8066;SDS011;4076;48.076;9.118;2023-01-25T16:25:39;19.43;;;11.23;;
8066;SDS011;4076;48.076;9.118;2023-01-25T16:28:10;14.27;;;9.90;;
8066;SDS011;4076;48.076;9.118;2023-01-25T16:30:41;23.90;;;11.13;;
8066;SDS011;4076;48.076;9.118;2023-01-25T16:33:09;16.03;;;8.77;;
8066;SDS011;4076;48.076;9.118;2023-01-25T16:35:35;20.50;;;10.30;;
8066;SDS011;4076;48.076;9.118;2023-01-25T16:38:01;18.90;;;9.27;;
8066;SDS011;4076;48.076;9.118;2023-01-25T16:40:27;23.30;;;9.93;;
8066;SDS011;4076;48.076;9.118;2023-01-25T16:43:00;24.00;;;13.47;;
8066;SDS011;4076;48.076;9.118;2023-01-25T16:45:26;17.13;;;12.43;;
8066;SDS011;4076;48.076;9.118;2023-01-25T16:47:52;20.77;;;12.23;;
8066;SDS011;4076;48.076;9.118;2023-01-25T16:50:19;17.50;;;12.20;;
8066;SDS011;4076;48.076;9.118;2023-01-25T16:52:46;27.83;;;15.87;;
8066;SDS011;4076;48.076;9.118;2023-01-25T16:55:14;58.17;;;31.50;;
8066;SDS011;4076;48.076;9.118;2023-01-25T16:57:40;37.57;;;20.97;;
8066;SDS011;4076;48.076;9.118;2023-01-25T17:00:08;33.10;;;19.40;;
8066;SDS011;4076;48.076;9.118;2023-01-25T17:02:37;17.30;;;10.13;;
8066;SDS011;4076;48.076;9.118;2023-01-25T17:05:04;114.90;;;60.63;;
8066;SDS011;4076;48.076;9.118;2023-01-25T17:07:30;71.93;;;43.90;;
8066;SDS011;4076;48.076;9.118;2023-01-25T17:09:56;45.70;;;31.87;;